sensor_id;sensor_type;location;lat;lon;timestamp;temperature;humidity
13052;DHT22;6592;47.484;9.726;2022-08-19T00:01:39;18.50;99.90
13052;DHT22;6592;47.484;9.726;2022-08-19T00:04:09;18.50;99.90
13052;DHT22;6592;47.484;9.726;2022-08-19T00:06:38;18.40;99.90
13052;DHT22;6592;47.484;9.726;2022-08-19T00:09:10;18.50;99.90
13052;DHT22;6592;47.484;9.726;2022-08-19T00:11:39;18.50;99.90
13052;DHT22;6592;47.484;9.726;2022-08-19T00:14:09;18.50;99.90
13052;DHT22;6592;47.484;9.726;2022-08-19T00:16:38;18.50;99.90
13052;DHT22;6592;47.484;9.726;2022-08-19T00:19:06;18.50;99.90
13052;DHT22;6592;47.484;9.726;2022-08-19T00:21:35;18.60;99.90
13052;DHT22;6592;47.484;9.726;2022-08-19T00:24:05;18.60;99.90
13052;DHT22;6592;47.484;9.726;2022-08-19T00:26:35;18.60;99.90
13052;DHT22;6592;47.484;9.726;2022-08-19T00:29:04;18.60;99.90
13052;DHT22;6592;47.484;9.726;2022-08-19T00:31:33;18.60;99.90
13052;DHT22;6592;47.484;9.726;2022-08-19T00:34:01;18.60;99.90
13052;DHT22;6592;47.484;9.726;2022-08-19T00:36:30;18.60;99.90
13052;DHT22;6592;47.484;9.726;2022-08-19T00:39:00;18.60;99.90
13052;DHT22;6592;47.484;9.726;2022-08-19T00:41:28;18.60;99.90
13052;DHT22;6592;47.484;9.726;2022-08-19T00:43:59;18.70;99.90
13052;DHT22;6592;47.484;9.726;2022-08-19T00:46:28;18.70;99.90
13052;DHT22;6592;47.484;9.726;2022-08-19T00:48:56;18.70;99.90
13052;DHT22;6592;47.484;9.726;2022-08-19T00:51:26;18.60;99.90
13052;DHT22;6592;47.484;9.726;2022-08-19T00:53:56;18.60;99.90
13052;DHT22;6592;47.484;9.726;2022-08-19T00:56:25;18.60;99.90
13052;DHT22;6592;47.484;9.726;2022-08-19T00:58:59;18.60;99.90
13052;DHT22;6592;47.484;9.726;2022-08-19T01:01:30;18.50;99.90
13052;DHT22;6592;47.484;9.726;2022-08-19T01:03:58;18.50;99.90
13052;DHT22;6592;47.484;9.726;2022-08-19T01:06:27;18.40;99.90
13052;DHT22;6592;47.484;9.726;2022-08-19T01:08:57;18.20;99.90
13052;DHT22;6592;47.484;9.726;2022-08-19T01:11:26;18.30;99.90
13052;DHT22;6592;47.484;9.726;2022-08-19T01:13:54;18.30;99.90
13052;DHT22;6592;47.484;9.726;2022-08-19T01:16:25;18.30;99.90
13052;DHT22;6592;47.484;9.726;2022-08-19T01:18:54;18.30;99.90
13052;DHT22;6592;47.484;9.726;2022-08-19T01:21:24;18.30;99.90
13052;DHT22;6592;47.484;9.726;2022-08-19T01:23:56;18.30;99.90
13052;DHT22;6592;47.484;9.726;2022-08-19T01:26:26;18.30;99.90
13052;DHT22;6592;47.484;9.726;2022-08-19T01:28:58;18.30;99.90
13052;DHT22;6592;47.484;9.726;2022-08-19T01:31:30;18.30;99.90
13052;DHT22;6592;47.484;9.726;2022-08-19T01:33:59;18.30;99.90
13052;DHT22;6592;47.484;9.726;2022-08-19T01:36:30;18.20;99.90
13052;DHT22;6592;47.484;9.726;2022-08-19T01:39:01;18.30;99.90
13052;DHT22;6592;47.484;9.726;2022-08-19T01:41:30;18.20;99.90
13052;DHT22;6592;47.484;9.726;2022-08-19T01:43:58;18.20;99.90
13052;DHT22;6592;47.484;9.726;2022-08-19T01:46:45;18.20;99.90
13052;DHT22;6592;47.484;9.726;2022-08-19T01:49:15;18.20;99.90
13052;DHT22;6592;47.484;9.726;2022-08-19T01:51:43;18.30;99.90
13052;DHT22;6592;47.484;9.726;2022-08-19T01:54:14;18.20;99.90
13052;DHT22;6592;47.484;9.726;2022-08-19T01:56:54;18.20;99.90
13052;DHT22;6592;47.484;9.726;2022-08-19T01:59:24;18.20;99.90
13052;DHT22;6592;47.484;9.726;2022-08-19T02:01:52;18.30;99.90
13052;DHT22;6592;47.484;9.726;2022-08-19T02:04:20;18.20;99.90
13052;DHT22;6592;47.484;9.726;2022-08-19T02:06:50;18.30;99.90
13052;DHT22;6592;47.484;9.726;2022-08-19T02:09:20;18.30;99.90
13052;DHT22;6592;47.484;9.726;2022-08-19T02:11:49;18.30;99.90
13052;DHT22;6592;47.484;9.726;2022-08-19T02:14:18;18.30;99.90
13052;DHT22;6592;47.484;9.726;2022-08-19T02:16:46;18.40;99.90
13052;DHT22;6592;47.484;9.726;2022-08-19T02:19:15;18.30;99.90
13052;DHT22;6592;47.484;9.726;2022-08-19T02:21:43;18.30;99.90
13052;DHT22;6592;47.484;9.726;2022-08-19T02:24:12;18.30;99.90
13052;DHT22;6592;47.484;9.726;2022-08-19T02:26:42;18.30;99.90
13052;DHT22;6592;47.484;9.726;2022-08-19T02:29:10;18.30;99.90
13052;DHT22;6592;47.484;9.726;2022-08-19T02:31:38;18.30;99.90
13052;DHT22;6592;47.484;9.726;2022-08-19T02:34:06;18.30;99.90
13052;DHT22;6592;47.484;9.726;2022-08-19T02:36:35;18.30;99.90
13052;DHT22;6592;47.484;9.726;2022-08-19T02:39:08;18.30;99.90
13052;DHT22;6592;47.484;9.726;2022-08-19T02:41:36;18.40;99.90
13052;DHT22;6592;47.484;9.726;2022-08-19T02:44:05;18.40;99.90
13052;DHT22;6592;47.484;9.726;2022-08-19T02:46:54;18.40;99.90
13052;DHT22;6592;47.484;9.726;2022-08-19T02:49:22;18.40;99.90
13052;DHT22;6592;47.484;9.726;2022-08-19T02:51:51;18.40;99.90
13052;DHT22;6592;47.484;9.726;2022-08-19T02:54:19;18.40;99.90
13052;DHT22;6592;47.484;9.726;2022-08-19T02:56:48;18.30;99.90
13052;DHT22;6592;47.484;9.726;2022-08-19T02:59:18;18.40;99.90
13052;DHT22;6592;47.484;9.726;2022-08-19T03:01:48;18.30;99.90
13052;DHT22;6592;47.484;9.726;2022-08-19T03:04:17;18.30;99.90
13052;DHT22;6592;47.484;9.726;2022-08-19T03:06:46;18.40;99.90
13052;DHT22;6592;47.484;9.726;2022-08-19T03:09:15;18.30;99.90
13052;DHT22;6592;47.484;9.726;2022-08-19T03:11:43;18.20;99.90
13052;DHT22;6592;47.484;9.726;2022-08-19T03:14:14;18.20;99.90
13052;DHT22;6592;47.484;9.726;2022-08-19T03:16:45;18.20;99.90
13052;DHT22;6592;47.484;9.726;2022-08-19T03:19:14;18.20;99.90
13052;DHT22;6592;47.484;9.726;2022-08-19T03:21:43;18.30;99.90
13052;DHT22;6592;47.484;9.726;2022-08-19T03:24:13;18.30;99.90
13052;DHT22;6592;47.484;9.726;2022-08-19T03:26:43;18.30;99.90
13052;DHT22;6592;47.484;9.726;2022-08-19T03:29:11;18.30;99.90
13052;DHT22;6592;47.484;9.726;2022-08-19T03:31:56;18.20;99.90
13052;DHT22;6592;47.484;9.726;2022-08-19T03:34:30;18.20;99.90
13052;DHT22;6592;47.484;9.726;2022-08-19T03:37:01;18.30;99.90
13052;DHT22;6592;47.484;9.726;2022-08-19T03:39:30;18.30;99.90
13052;DHT22;6592;47.484;9.726;2022-08-19T03:41:59;18.30;99.90
13052;DHT22;6592;47.484;9.726;2022-08-19T03:44:49;18.30;99.90
13052;DHT22;6592;47.484;9.726;2022-08-19T03:47:19;18.30;99.90
13052;DHT22;6592;47.484;9.726;2022-08-19T03:49:47;18.20;99.90
13052;DHT22;6592;47.484;9.726;2022-08-19T03:52:15;18.30;99.90
13052;DHT22;6592;47.484;9.726;2022-08-19T03:54:43;18.30;99.90
13052;DHT22;6592;47.484;9.726;2022-08-19T03:57:11;18.30;99.90
13052;DHT22;6592;47.484;9.726;2022-08-19T03:59:40;18.40;99.90
13052;DHT22;6592;47.484;9.726;2022-08-19T04:02:09;18.40;99.90
13052;DHT22;6592;47.484;9.726;2022-08-19T04:04:41;18.50;99.90
13052;DHT22;6592;47.484;9.726;2022-08-19T04:07:10;18.50;99.90
13052;DHT22;6592;47.484;9.726;2022-08-19T04:09:42;18.50;99.90
13052;DHT22;6592;47.484;9.726;2022-08-19T04:12:11;18.40;99.90
13052;DHT22;6592;47.484;9.726;2022-08-19T04:14:40;18.60;99.90
13052;DHT22;6592;47.484;9.726;2022-08-19T04:17:08;18.60;99.90
13052;DHT22;6592;47.484;9.726;2022-08-19T04:19:37;18.50;99.90
13052;DHT22;6592;47.484;9.726;2022-08-19T04:22:07;18.60;99.90
13052;DHT22;6592;47.484;9.726;2022-08-19T04:24:35;18.60;99.90
13052;DHT22;6592;47.484;9.726;2022-08-19T04:27:04;18.50;99.90
13052;DHT22;6592;47.484;9.726;2022-08-19T04:29:33;18.60;99.90
13052;DHT22;6592;47.484;9.726;2022-08-19T04:32:01;18.60;99.90
13052;DHT22;6592;47.484;9.726;2022-08-19T04:34:35;18.50;99.90
13052;DHT22;6592;47.484;9.726;2022-08-19T04:37:26;18.70;99.90
13052;DHT22;6592;47.484;9.726;2022-08-19T04:40:02;18.70;99.90
13052;DHT22;6592;47.484;9.726;2022-08-19T04:42:49;18.70;99.90
13052;DHT22;6592;47.484;9.726;2022-08-19T04:45:17;18.70;99.90
13052;DHT22;6592;47.484;9.726;2022-08-19T04:47:48;18.70;99.90
13052;DHT22;6592;47.484;9.726;2022-08-19T04:50:39;18.80;99.90
13052;DHT22;6592;47.484;9.726;2022-08-19T04:53:10;18.80;99.90
13052;DHT22;6592;47.484;9.726;2022-08-19T04:55:39;18.80;99.90
13052;DHT22;6592;47.484;9.726;2022-08-19T04:58:07;18.80;99.90
13052;DHT22;6592;47.484;9.726;2022-08-19T05:00:37;18.60;99.90
13052;DHT22;6592;47.484;9.726;2022-08-19T05:03:06;18.60;99.90
13052;DHT22;6592;47.484;9.726;2022-08-19T05:05:37;18.60;99.90
13052;DHT22;6592;47.484;9.726;2022-08-19T05:08:12;18.60;99.90
13052;DHT22;6592;47.484;9.726;2022-08-19T05:10:57;18.70;99.90
13052;DHT22;6592;47.484;9.726;2022-08-19T05:13:25;18.70;99.90
13052;DHT22;6592;47.484;9.726;2022-08-19T05:15:53;18.80;99.90
13052;DHT22;6592;47.484;9.726;2022-08-19T05:18:22;18.80;99.90
13052;DHT22;6592;47.484;9.726;2022-08-19T05:21:08;18.80;99.90
13052;DHT22;6592;47.484;9.726;2022-08-19T05:23:55;18.70;99.90
13052;DHT22;6592;47.484;9.726;2022-08-19T05:26:24;18.80;99.90
13052;DHT22;6592;47.484;9.726;2022-08-19T05:28:53;18.80;99.90
13052;DHT22;6592;47.484;9.726;2022-08-19T05:31:21;18.60;99.90
13052;DHT22;6592;47.484;9.726;2022-08-19T05:33:49;18.70;99.90
13052;DHT22;6592;47.484;9.726;2022-08-19T05:36:17;18.70;99.90
13052;DHT22;6592;47.484;9.726;2022-08-19T05:38:46;18.80;99.90
13052;DHT22;6592;47.484;9.726;2022-08-19T05:41:18;18.70;99.90
13052;DHT22;6592;47.484;9.726;2022-08-19T05:43:46;18.70;99.90
13052;DHT22;6592;47.484;9.726;2022-08-19T05:46:17;18.60;99.90
13052;DHT22;6592;47.484;9.726;2022-08-19T05:48:53;18.60;99.90
13052;DHT22;6592;47.484;9.726;2022-08-19T05:51:23;18.70;99.90
13052;DHT22;6592;47.484;9.726;2022-08-19T05:53:54;18.70;99.90
13052;DHT22;6592;47.484;9.726;2022-08-19T05:56:24;18.70;99.90
13052;DHT22;6592;47.484;9.726;2022-08-19T05:58:53;18.70;99.90
13052;DHT22;6592;47.484;9.726;2022-08-19T06:01:24;18.80;99.90
13052;DHT22;6592;47.484;9.726;2022-08-19T06:03:53;18.80;99.90
13052;DHT22;6592;47.484;9.726;2022-08-19T06:06:21;18.80;99.90
13052;DHT22;6592;47.484;9.726;2022-08-19T06:08:49;18.70;99.90
13052;DHT22;6592;47.484;9.726;2022-08-19T06:11:19;18.60;99.90
13052;DHT22;6592;47.484;9.726;2022-08-19T06:13:49;18.60;99.90
13052;DHT22;6592;47.484;9.726;2022-08-19T06:16:26;18.60;99.90
13052;DHT22;6592;47.484;9.726;2022-08-19T06:18:54;18.70;99.90
13052;DHT22;6592;47.484;9.726;2022-08-19T06:21:24;18.70;99.90
13052;DHT22;6592;47.484;9.726;2022-08-19T06:23:54;18.60;99.90
13052;DHT22;6592;47.484;9.726;2022-08-19T06:26:22;18.50;99.90
13052;DHT22;6592;47.484;9.726;2022-08-19T06:28:53;18.50;99.90
13052;DHT22;6592;47.484;9.726;2022-08-19T06:31:25;18.50;99.90
13052;DHT22;6592;47.484;9.726;2022-08-19T06:33:54;18.40;99.90
13052;DHT22;6592;47.484;9.726;2022-08-19T06:36:24;18.40;99.90
13052;DHT22;6592;47.484;9.726;2022-08-19T06:38:58;18.40;99.90
13052;DHT22;6592;47.484;9.726;2022-08-19T06:41:26;18.30;99.90
13052;DHT22;6592;47.484;9.726;2022-08-19T06:43:56;18.30;99.90
13052;DHT22;6592;47.484;9.726;2022-08-19T06:46:24;18.40;99.90
13052;DHT22;6592;47.484;9.726;2022-08-19T06:48:53;18.40;99.90
13052;DHT22;6592;47.484;9.726;2022-08-19T06:51:21;18.50;99.90
13052;DHT22;6592;47.484;9.726;2022-08-19T06:53:51;18.60;99.90
13052;DHT22;6592;47.484;9.726;2022-08-19T06:56:22;18.60;99.90
13052;DHT22;6592;47.484;9.726;2022-08-19T06:58:51;18.50;99.90
13052;DHT22;6592;47.484;9.726;2022-08-19T07:01:21;18.30;99.90
13052;DHT22;6592;47.484;9.726;2022-08-19T07:03:49;18.20;99.90
13052;DHT22;6592;47.484;9.726;2022-08-19T07:06:17;18.10;99.90
13052;DHT22;6592;47.484;9.726;2022-08-19T07:09:07;18.10;99.90
13052;DHT22;6592;47.484;9.726;2022-08-19T07:11:37;18.00;99.90
13052;DHT22;6592;47.484;9.726;2022-08-19T07:14:05;17.90;99.90
13052;DHT22;6592;47.484;9.726;2022-08-19T07:16:47;18.00;99.90
13052;DHT22;6592;47.484;9.726;2022-08-19T07:19:17;18.10;99.90
13052;DHT22;6592;47.484;9.726;2022-08-19T07:21:45;18.00;99.90
13052;DHT22;6592;47.484;9.726;2022-08-19T07:24:14;17.90;99.90
13052;DHT22;6592;47.484;9.726;2022-08-19T07:26:43;17.80;99.90
13052;DHT22;6592;47.484;9.726;2022-08-19T07:29:11;17.70;99.90
13052;DHT22;6592;47.484;9.726;2022-08-19T07:31:40;17.70;99.90
13052;DHT22;6592;47.484;9.726;2022-08-19T07:34:11;17.70;99.90
13052;DHT22;6592;47.484;9.726;2022-08-19T07:36:40;17.80;99.90
13052;DHT22;6592;47.484;9.726;2022-08-19T07:39:11;17.80;99.90
13052;DHT22;6592;47.484;9.726;2022-08-19T07:41:39;17.90;99.90
13052;DHT22;6592;47.484;9.726;2022-08-19T07:44:08;17.90;99.90
13052;DHT22;6592;47.484;9.726;2022-08-19T07:46:37;18.00;99.90
13052;DHT22;6592;47.484;9.726;2022-08-19T07:49:06;18.00;99.90
13052;DHT22;6592;47.484;9.726;2022-08-19T07:51:36;18.10;99.90
13052;DHT22;6592;47.484;9.726;2022-08-19T07:54:04;18.10;99.90
13052;DHT22;6592;47.484;9.726;2022-08-19T07:56:32;18.20;99.90
13052;DHT22;6592;47.484;9.726;2022-08-19T07:59:00;18.20;99.90
13052;DHT22;6592;47.484;9.726;2022-08-19T08:01:29;18.30;99.90
13052;DHT22;6592;47.484;9.726;2022-08-19T08:03:57;18.30;99.90
13052;DHT22;6592;47.484;9.726;2022-08-19T08:06:44;18.30;99.90
13052;DHT22;6592;47.484;9.726;2022-08-19T08:09:31;18.30;99.90
13052;DHT22;6592;47.484;9.726;2022-08-19T08:12:01;18.40;99.90
13052;DHT22;6592;47.484;9.726;2022-08-19T08:14:50;18.50;99.90
13052;DHT22;6592;47.484;9.726;2022-08-19T08:17:22;18.60;99.90
13052;DHT22;6592;47.484;9.726;2022-08-19T08:20:11;18.70;99.90
13052;DHT22;6592;47.484;9.726;2022-08-19T08:22:43;18.70;99.90
13052;DHT22;6592;47.484;9.726;2022-08-19T08:25:30;18.80;99.90
13052;DHT22;6592;47.484;9.726;2022-08-19T08:28:00;18.80;99.90
13052;DHT22;6592;47.484;9.726;2022-08-19T08:30:29;18.70;99.90
13052;DHT22;6592;47.484;9.726;2022-08-19T08:32:59;18.80;99.90
13052;DHT22;6592;47.484;9.726;2022-08-19T08:35:28;18.90;99.90
13052;DHT22;6592;47.484;9.726;2022-08-19T08:37:58;18.90;99.90
13052;DHT22;6592;47.484;9.726;2022-08-19T08:40:27;19.00;99.90
13052;DHT22;6592;47.484;9.726;2022-08-19T08:42:57;19.00;99.90
13052;DHT22;6592;47.484;9.726;2022-08-19T08:45:34;19.00;99.90
13052;DHT22;6592;47.484;9.726;2022-08-19T08:48:11;19.10;99.90
13052;DHT22;6592;47.484;9.726;2022-08-19T08:50:49;19.20;99.90
13052;DHT22;6592;47.484;9.726;2022-08-19T08:53:20;19.30;99.90
13052;DHT22;6592;47.484;9.726;2022-08-19T08:55:54;19.30;99.90
13052;DHT22;6592;47.484;9.726;2022-08-19T08:58:25;19.40;99.90
13052;DHT22;6592;47.484;9.726;2022-08-19T09:00:56;19.40;99.90
13052;DHT22;6592;47.484;9.726;2022-08-19T09:03:26;19.50;99.90
13052;DHT22;6592;47.484;9.726;2022-08-19T09:05:58;19.60;99.90
13052;DHT22;6592;47.484;9.726;2022-08-19T09:08:32;19.50;99.90
13052;DHT22;6592;47.484;9.726;2022-08-19T09:11:06;19.80;99.90
13052;DHT22;6592;47.484;9.726;2022-08-19T09:13:38;19.80;99.90
13052;DHT22;6592;47.484;9.726;2022-08-19T09:16:11;19.90;99.90
13052;DHT22;6592;47.484;9.726;2022-08-19T09:18:41;19.90;99.90
13052;DHT22;6592;47.484;9.726;2022-08-19T09:21:10;20.10;99.90
13052;DHT22;6592;47.484;9.726;2022-08-19T09:23:40;20.10;99.90
13052;DHT22;6592;47.484;9.726;2022-08-19T09:26:10;20.20;99.90
13052;DHT22;6592;47.484;9.726;2022-08-19T09:28:42;20.30;99.90
13052;DHT22;6592;47.484;9.726;2022-08-19T09:31:15;20.10;99.90
13052;DHT22;6592;47.484;9.726;2022-08-19T09:33:44;20.10;99.90
13052;DHT22;6592;47.484;9.726;2022-08-19T09:36:13;20.10;99.90
13052;DHT22;6592;47.484;9.726;2022-08-19T09:39:02;20.10;99.90
13052;DHT22;6592;47.484;9.726;2022-08-19T09:41:42;20.10;99.90
13052;DHT22;6592;47.484;9.726;2022-08-19T09:44:14;20.20;99.90
13052;DHT22;6592;47.484;9.726;2022-08-19T09:46:44;20.10;99.90
13052;DHT22;6592;47.484;9.726;2022-08-19T09:49:14;20.10;99.90
13052;DHT22;6592;47.484;9.726;2022-08-19T09:51:44;20.10;99.90
13052;DHT22;6592;47.484;9.726;2022-08-19T09:54:18;20.00;99.90
13052;DHT22;6592;47.484;9.726;2022-08-19T09:56:50;20.00;99.90
13052;DHT22;6592;47.484;9.726;2022-08-19T09:59:19;19.90;99.90
13052;DHT22;6592;47.484;9.726;2022-08-19T10:01:47;19.90;99.90
13052;DHT22;6592;47.484;9.726;2022-08-19T10:04:15;19.80;99.90
13052;DHT22;6592;47.484;9.726;2022-08-19T10:06:46;19.80;99.90
13052;DHT22;6592;47.484;9.726;2022-08-19T10:09:21;19.80;99.90
13052;DHT22;6592;47.484;9.726;2022-08-19T10:12:00;19.80;99.90
13052;DHT22;6592;47.484;9.726;2022-08-19T10:14:29;19.80;99.90
13052;DHT22;6592;47.484;9.726;2022-08-19T10:16:57;19.80;99.90
13052;DHT22;6592;47.484;9.726;2022-08-19T10:19:43;19.80;99.90
13052;DHT22;6592;47.484;9.726;2022-08-19T10:22:21;19.90;99.90
13052;DHT22;6592;47.484;9.726;2022-08-19T10:24:52;19.90;99.90
13052;DHT22;6592;47.484;9.726;2022-08-19T10:27:21;19.90;99.90
13052;DHT22;6592;47.484;9.726;2022-08-19T10:29:52;19.80;99.90
13052;DHT22;6592;47.484;9.726;2022-08-19T10:32:20;19.60;99.90
13052;DHT22;6592;47.484;9.726;2022-08-19T10:35:00;19.50;99.90
13052;DHT22;6592;47.484;9.726;2022-08-19T10:37:31;19.50;99.90
13052;DHT22;6592;47.484;9.726;2022-08-19T10:40:02;19.50;99.90
13052;DHT22;6592;47.484;9.726;2022-08-19T10:42:31;19.50;99.90
13052;DHT22;6592;47.484;9.726;2022-08-19T10:44:59;19.10;99.90
13052;DHT22;6592;47.484;9.726;2022-08-19T10:47:30;18.90;99.90
13052;DHT22;6592;47.484;9.726;2022-08-19T10:49:59;18.80;99.90
13052;DHT22;6592;47.484;9.726;2022-08-19T10:52:46;18.70;99.90
13052;DHT22;6592;47.484;9.726;2022-08-19T10:55:18;18.80;99.90
13052;DHT22;6592;47.484;9.726;2022-08-19T10:58:03;18.70;99.90
13052;DHT22;6592;47.484;9.726;2022-08-19T11:00:36;18.70;99.90
13052;DHT22;6592;47.484;9.726;2022-08-19T11:03:04;18.60;99.90
13052;DHT22;6592;47.484;9.726;2022-08-19T11:05:35;18.50;99.90
13052;DHT22;6592;47.484;9.726;2022-08-19T11:08:06;18.40;99.90
13052;DHT22;6592;47.484;9.726;2022-08-19T11:10:51;18.20;99.90
13052;DHT22;6592;47.484;9.726;2022-08-19T11:13:25;18.10;99.90
13052;DHT22;6592;47.484;9.726;2022-08-19T11:15:57;18.00;99.90
13052;DHT22;6592;47.484;9.726;2022-08-19T11:18:33;17.90;99.90
13052;DHT22;6592;47.484;9.726;2022-08-19T11:21:05;17.80;99.90
13052;DHT22;6592;47.484;9.726;2022-08-19T11:23:33;17.70;99.90
13052;DHT22;6592;47.484;9.726;2022-08-19T11:26:03;17.60;99.90
13052;DHT22;6592;47.484;9.726;2022-08-19T11:28:31;17.50;99.90
13052;DHT22;6592;47.484;9.726;2022-08-19T11:30:59;17.40;99.90
13052;DHT22;6592;47.484;9.726;2022-08-19T11:33:30;17.30;99.90
13052;DHT22;6592;47.484;9.726;2022-08-19T11:35:59;17.20;99.90
13052;DHT22;6592;47.484;9.726;2022-08-19T11:38:27;17.10;99.90
13052;DHT22;6592;47.484;9.726;2022-08-19T11:40:56;17.10;99.90
13052;DHT22;6592;47.484;9.726;2022-08-19T11:43:25;17.00;99.90
13052;DHT22;6592;47.484;9.726;2022-08-19T11:45:54;16.90;99.90
13052;DHT22;6592;47.484;9.726;2022-08-19T11:48:22;16.90;99.90
13052;DHT22;6592;47.484;9.726;2022-08-19T11:50:51;16.90;99.90
13052;DHT22;6592;47.484;9.726;2022-08-19T11:53:22;16.90;99.90
13052;DHT22;6592;47.484;9.726;2022-08-19T11:55:50;16.90;99.90
13052;DHT22;6592;47.484;9.726;2022-08-19T11:58:22;16.90;99.90
13052;DHT22;6592;47.484;9.726;2022-08-19T12:00:52;16.80;99.90
13052;DHT22;6592;47.484;9.726;2022-08-19T12:03:21;16.80;99.90
13052;DHT22;6592;47.484;9.726;2022-08-19T12:05:49;16.80;99.90
13052;DHT22;6592;47.484;9.726;2022-08-19T12:08:17;16.70;99.90
13052;DHT22;6592;47.484;9.726;2022-08-19T12:10:45;16.70;99.90
13052;DHT22;6592;47.484;9.726;2022-08-19T12:13:14;16.60;99.90
13052;DHT22;6592;47.484;9.726;2022-08-19T12:15:46;16.50;99.90
13052;DHT22;6592;47.484;9.726;2022-08-19T12:18:16;16.50;99.90
13052;DHT22;6592;47.484;9.726;2022-08-19T12:20:44;16.50;99.90
13052;DHT22;6592;47.484;9.726;2022-08-19T12:23:14;16.50;99.90
13052;DHT22;6592;47.484;9.726;2022-08-19T12:25:43;16.50;99.90
13052;DHT22;6592;47.484;9.726;2022-08-19T12:28:18;16.50;99.90
13052;DHT22;6592;47.484;9.726;2022-08-19T12:30:47;16.50;99.90
13052;DHT22;6592;47.484;9.726;2022-08-19T12:33:18;16.50;99.90
13052;DHT22;6592;47.484;9.726;2022-08-19T12:35:50;16.50;99.90
13052;DHT22;6592;47.484;9.726;2022-08-19T12:38:18;16.50;99.90
13052;DHT22;6592;47.484;9.726;2022-08-19T12:40:49;16.50;99.90
13052;DHT22;6592;47.484;9.726;2022-08-19T12:43:22;16.60;99.90
13052;DHT22;6592;47.484;9.726;2022-08-19T12:45:50;16.80;99.90
13052;DHT22;6592;47.484;9.726;2022-08-19T12:48:20;16.70;99.90
13052;DHT22;6592;47.484;9.726;2022-08-19T12:51:00;16.70;99.90
13052;DHT22;6592;47.484;9.726;2022-08-19T12:53:33;16.70;99.90
13052;DHT22;6592;47.484;9.726;2022-08-19T12:56:05;16.80;99.90
13052;DHT22;6592;47.484;9.726;2022-08-19T12:58:38;16.80;99.90
13052;DHT22;6592;47.484;9.726;2022-08-19T13:01:17;16.80;99.90
13052;DHT22;6592;47.484;9.726;2022-08-19T13:03:50;16.80;99.90
13052;DHT22;6592;47.484;9.726;2022-08-19T13:06:19;16.70;99.90
13052;DHT22;6592;47.484;9.726;2022-08-19T13:08:47;16.60;99.90
13052;DHT22;6592;47.484;9.726;2022-08-19T13:11:16;16.60;99.90
13052;DHT22;6592;47.484;9.726;2022-08-19T13:13:46;16.50;99.90
13052;DHT22;6592;47.484;9.726;2022-08-19T13:16:14;16.50;99.90
13052;DHT22;6592;47.484;9.726;2022-08-19T13:18:43;16.40;99.90
13052;DHT22;6592;47.484;9.726;2022-08-19T13:21:14;16.50;99.90
13052;DHT22;6592;47.484;9.726;2022-08-19T13:23:42;16.40;99.90
13052;DHT22;6592;47.484;9.726;2022-08-19T13:26:10;16.40;99.90
13052;DHT22;6592;47.484;9.726;2022-08-19T13:28:40;16.50;99.90
13052;DHT22;6592;47.484;9.726;2022-08-19T13:31:26;16.50;99.90
13052;DHT22;6592;47.484;9.726;2022-08-19T13:34:12;16.50;99.90
13052;DHT22;6592;47.484;9.726;2022-08-19T13:36:42;16.50;99.90
13052;DHT22;6592;47.484;9.726;2022-08-19T13:39:10;16.50;99.90
13052;DHT22;6592;47.484;9.726;2022-08-19T13:41:42;16.60;99.90
13052;DHT22;6592;47.484;9.726;2022-08-19T13:44:12;16.60;99.90
13052;DHT22;6592;47.484;9.726;2022-08-19T13:46:40;16.70;99.90
13052;DHT22;6592;47.484;9.726;2022-08-19T13:49:11;16.70;99.90
13052;DHT22;6592;47.484;9.726;2022-08-19T13:51:43;16.70;99.90
13052;DHT22;6592;47.484;9.726;2022-08-19T13:54:12;16.70;99.90
13052;DHT22;6592;47.484;9.726;2022-08-19T13:56:40;16.80;99.90
13052;DHT22;6592;47.484;9.726;2022-08-19T13:59:08;16.90;99.90
13052;DHT22;6592;47.484;9.726;2022-08-19T14:01:36;16.80;99.90
13052;DHT22;6592;47.484;9.726;2022-08-19T14:04:05;16.90;99.90
13052;DHT22;6592;47.484;9.726;2022-08-19T14:06:33;17.00;99.90
13052;DHT22;6592;47.484;9.726;2022-08-19T14:09:03;17.10;99.90
13052;DHT22;6592;47.484;9.726;2022-08-19T14:11:32;17.10;99.90
13052;DHT22;6592;47.484;9.726;2022-08-19T14:14:00;17.10;99.90
13052;DHT22;6592;47.484;9.726;2022-08-19T14:16:28;17.20;99.90
13052;DHT22;6592;47.484;9.726;2022-08-19T14:18:57;17.40;99.90
13052;DHT22;6592;47.484;9.726;2022-08-19T14:21:25;17.30;99.90
13052;DHT22;6592;47.484;9.726;2022-08-19T14:23:53;17.30;99.90
13052;DHT22;6592;47.484;9.726;2022-08-19T14:26:23;17.30;99.90
13052;DHT22;6592;47.484;9.726;2022-08-19T14:28:52;17.30;99.90
13052;DHT22;6592;47.484;9.726;2022-08-19T14:31:21;17.40;99.90
13052;DHT22;6592;47.484;9.726;2022-08-19T14:33:56;17.40;99.90
13052;DHT22;6592;47.484;9.726;2022-08-19T14:36:24;17.40;99.90
13052;DHT22;6592;47.484;9.726;2022-08-19T14:38:52;17.40;99.90
13052;DHT22;6592;47.484;9.726;2022-08-19T14:41:21;17.30;99.90
13052;DHT22;6592;47.484;9.726;2022-08-19T14:43:51;17.40;99.90
13052;DHT22;6592;47.484;9.726;2022-08-19T14:46:20;17.40;99.90
13052;DHT22;6592;47.484;9.726;2022-08-19T14:48:48;17.40;99.90
13052;DHT22;6592;47.484;9.726;2022-08-19T14:51:18;17.30;99.90
13052;DHT22;6592;47.484;9.726;2022-08-19T14:53:46;17.20;99.90
13052;DHT22;6592;47.484;9.726;2022-08-19T14:56:16;16.90;99.90
13052;DHT22;6592;47.484;9.726;2022-08-19T14:58:45;16.80;99.90
13052;DHT22;6592;47.484;9.726;2022-08-19T15:01:14;16.80;99.90
13052;DHT22;6592;47.484;9.726;2022-08-19T15:03:43;16.80;99.90
13052;DHT22;6592;47.484;9.726;2022-08-19T15:06:11;16.70;99.90
13052;DHT22;6592;47.484;9.726;2022-08-19T15:08:40;16.80;99.90
13052;DHT22;6592;47.484;9.726;2022-08-19T15:11:10;16.80;99.90
13052;DHT22;6592;47.484;9.726;2022-08-19T15:13:38;16.80;99.90
13052;DHT22;6592;47.484;9.726;2022-08-19T15:16:07;16.70;99.90
13052;DHT22;6592;47.484;9.726;2022-08-19T15:18:45;16.80;99.90
13052;DHT22;6592;47.484;9.726;2022-08-19T15:21:14;16.80;99.90
13052;DHT22;6592;47.484;9.726;2022-08-19T15:23:53;16.80;99.90
13052;DHT22;6592;47.484;9.726;2022-08-19T15:26:21;16.80;99.90
13052;DHT22;6592;47.484;9.726;2022-08-19T15:28:51;16.80;99.90
13052;DHT22;6592;47.484;9.726;2022-08-19T15:31:20;16.80;99.90
13052;DHT22;6592;47.484;9.726;2022-08-19T15:33:56;16.70;99.90
13052;DHT22;6592;47.484;9.726;2022-08-19T15:36:24;16.60;99.90
13052;DHT22;6592;47.484;9.726;2022-08-19T15:38:53;16.70;99.90
13052;DHT22;6592;47.484;9.726;2022-08-19T15:41:22;16.70;99.90
13052;DHT22;6592;47.484;9.726;2022-08-19T15:43:53;16.80;99.90
13052;DHT22;6592;47.484;9.726;2022-08-19T15:46:23;16.80;99.90
13052;DHT22;6592;47.484;9.726;2022-08-19T15:48:52;16.90;99.90
13052;DHT22;6592;47.484;9.726;2022-08-19T15:51:27;16.80;99.90
13052;DHT22;6592;47.484;9.726;2022-08-19T15:53:56;16.80;99.90
13052;DHT22;6592;47.484;9.726;2022-08-19T15:56:25;16.80;99.90
13052;DHT22;6592;47.484;9.726;2022-08-19T15:59:23;16.80;99.90
13052;DHT22;6592;47.484;9.726;2022-08-19T16:02:13;16.90;99.90
13052;DHT22;6592;47.484;9.726;2022-08-19T16:04:59;17.00;99.90
13052;DHT22;6592;47.484;9.726;2022-08-19T16:07:45;16.90;99.90
13052;DHT22;6592;47.484;9.726;2022-08-19T16:10:14;16.90;99.90